Accueil
METAR-TAF:

METAR-TAF

Aéroports :

Passo della Cisa, Italie

latitude: 44-26N, longitude: 009-56E, altitude: 1039 m

Observation

Le bulletin a été fait il y a 17 heures et 23 minutes, à 16:55 UTC
Vent 18 kt de nord
Température -4°C
Humidité 100%
Pression 1002 hPa
Visibilité: 0100 m
neige faible

METAR: LIMT 231655Z 36018KT 0100 -SN VV/// M04/M04 Q1002 RMK MON INVIS VAL INVIS VIS MIN 0100

Heure: 11:18 (10:18 UTC)


TAF: absent

Observations et prévisions météorologiques de plus de 4000 aéroports (messages METAR et TAF).

Les stations disponibles sont représentées par des disques jaunes et rouges sur la carte.

Passer la souris dessus pour voir le nom de la station.

Cliquer dessus pour voir les observations et prévisions météorologiques.

Pour changer de carte: cliquez sur les boutons verts avec une croix noire pour zoomer, sur le bouton vert avec un tiret pour effectuer un zoom arrière, ou sur les flèches vertes pour les cartes adjacentes.


METAR-TAF: